Pike, New York
Current Conditions -  °F | °C
As of 2:54 PM on Thursday 27 Nov 2014 (Local Time) from KDSV Reporting Station
Overcast Overcast  
Wind Chill: -3°   Ceiling: 4100
Heat Index:   Visibility: 10mi
Dew Point: -4°   Wind: 8mph
Humidity: 70%   Direction: 350°N
Pressure: 30.04"   Gusts: NA
Location:  42.56°N, 78.15°W
Report Text: KDSV 271954Z AUTO 35007KT 10SM SCT031 BKN041 OVC050 01/M04 A3004 RMK AO2 SNB14E26 SLP189 P0000 T00061044
Loading
Personal Weather Stations






























Interactive Weather Map New forecast layout! Learn more

10-Day Weather Forecast

Advertisements
Track Severe Weather on mobile